Time;durP1;ratioP1;P1;durP2;ratioP2;P2;SDS_P1;SDS_P2;PMS_P1;PMS_P2;Temp;Humidity;BMP_temperature;BMP_pressure;BME280_temperature;BME280_humidity;BME280_pressure;Samples;Min_cycle;Max_cycle;Signal;HPM_P1;HPM_P2
2021/03/20 00:02:19;;;;;;;47.45;27.55;;;;;;;1.54;95.10;100501.38;5015017;28;20032;-74
2021/03/20 00:04:46;;;;;;;43.67;26.70;;;;;;;1.57;95.55;100510.56;5013849;28;20054;-74
2021/03/20 00:07:13;;;;;;;43.38;26.85;;;;;;;1.92;94.87;100486.06;5013547;28;20018;-74
2021/03/20 00:09:38;;;;;;;48.47;28.50;;;;;;;1.92;93.24;100503.63;5014893;28;20026;-73
2021/03/20 00:12:06;;;;;;;45.05;27.15;;;;;;;1.61;94.94;100503.13;5015096;28;20723;-74
2021/03/20 00:14:31;;;;;;;47.33;27.25;;;;;;;1.70;94.40;100504.97;5013792;28;20116;-73
2021/03/20 00:17:19;;;;;;;48.25;28.75;;;;;;;2.25;93.51;100511.63;5015033;28;20056;-74
2021/03/20 00:19:54;;;;;;;54.25;31.08;;;;;;;2.31;92.95;100514.22;5015222;28;20467;-74
2021/03/20 00:22:31;;;;;;;65.07;37.10;;;;;;;2.08;93.21;100508.03;5014529;28;20049;-74
2021/03/20 00:24:56;;;;;;;71.65;40.40;;;;;;;2.04;93.01;100513.84;5013082;28;20052;-74
2021/03/20 00:27:47;;;;;;;69.78;41.53;;;;;;;1.96;94.01;100518.72;5014796;28;20026;-74
2021/03/20 00:30:29;;;;;;;72.53;41.10;;;;;;;2.01;92.85;100519.63;5014845;28;20038;-74
2021/03/20 00:33:00;;;;;;;73.32;40.65;;;;;;;2.09;93.13;100517.22;5013535;28;20085;-74
2021/03/20 00:35:31;;;;;;;70.65;41.00;;;;;;;1.97;93.21;100507.03;5013555;28;20079;-74
2021/03/20 00:37:59;;;;;;;66.07;41.05;;;;;;;2.18;92.49;100504.84;5014542;28;20064;-74
2021/03/20 00:40:32;;;;;;;77.63;42.92;;;;;;;2.19;92.87;100504.00;5014569;28;20034;-73
2021/03/20 00:43:10;;;;;;;74.75;43.22;;;;;;;2.48;91.40;100496.06;5012944;28;20025;-74
2021/03/20 00:45:37;;;;;;;75.88;42.85;;;;;;;2.37;90.76;100481.69;5012784;28;20095;-74
2021/03/20 00:48:33;;;;;;;87.47;48.53;;;;;;;2.40;92.62;100474.19;5014158;28;20037;-74
2021/03/20 00:51:11;;;;;;;84.68;46.72;;;;;;;1.77;93.83;100485.03;5012900;28;20033;-74
2021/03/20 00:53:52;;;;;;;76.35;44.15;;;;;;;2.23;93.60;100499.06;5012932;28;20026;-74
2021/03/20 00:56:27;;;;;;;78.75;44.80;;;;;;;1.99;93.28;100505.38;5014158;28;20029;-74
2021/03/20 00:58:57;;;;;;;85.15;47.42;;;;;;;2.03;93.91;100502.97;5014142;28;20034;-74
2021/03/20 01:01:26;;;;;;;97.60;55.35;;;;;;;1.68;93.98;100502.41;5014122;28;20029;-73
2021/03/20 01:03:53;;;;;;;92.78;53.63;;;;;;;1.95;93.87;100503.66;5013893;28;20196;-74
2021/03/20 01:06:24;;;;;;;91.80;54.92;;;;;;;1.92;93.17;100496.09;5013781;28;20026;-74
2021/03/20 01:09:06;;;;;;;82.57;50.65;;;;;;;1.82;93.36;100489.25;5013699;28;20061;-74
2021/03/20 01:11:45;;;;;;;75.50;45.30;;;;;;;1.57;93.99;100485.50;5013716;28;20050;-74
2021/03/20 01:14:22;;;;;;;74.57;46.08;;;;;;;1.70;94.11;100479.91;5013632;28;20026;-74
2021/03/20 01:17:06;;;;;;;86.00;50.95;;;;;;;1.60;94.09;100485.59;5013694;28;20049;-74
2021/03/20 01:19:40;;;;;;;82.05;49.03;;;;;;;1.55;94.44;100483.00;5014078;28;20034;-74
2021/03/20 01:22:17;;;;;;;88.30;49.90;;;;;;;1.84;93.57;100477.59;5013448;28;20037;-74
2021/03/20 01:24:44;;;;;;;88.00;51.35;;;;;;;1.48;94.50;100481.22;5013201;28;20049;-74
2021/03/20 01:27:23;;;;;;;89.57;51.17;;;;;;;1.32;95.15;100478.44;5013688;28;20411;-74
2021/03/20 01:30:12;;;;;;;80.97;48.80;;;;;;;1.61;94.58;100487.25;5013375;28;20033;-74
2021/03/20 01:32:39;;;;;;;88.35;48.90;;;;;;;1.39;95.48;100483.56;5013104;28;20060;-73
2021/03/20 01:35:16;;;;;;;91.72;50.38;;;;;;;1.59;95.44;100472.22;5013105;28;20026;-73
2021/03/20 01:37:44;;;;;;;90.30;49.42;;;;;;;1.56;96.18;100479.69;5012127;28;20471;-73
2021/03/20 01:40:13;;;;;;;96.57;50.25;;;;;;;1.96;94.62;100482.81;5013209;28;20073;-73
2021/03/20 01:42:47;;;;;;;85.97;49.25;;;;;;;2.03;93.03;100479.53;5013031;28;20026;-74
2021/03/20 01:48:36;;;;;;;84.28;48.03;;;;;;;1.97;92.68;100482.81;5030855;28;20047;-74
2021/03/20 01:51:18;;;;;;;89.20;50.03;;;;;;;1.49;94.77;100492.06;5072789;28;20035;-74
2021/03/20 01:53:53;;;;;;;;;;;;;;;2.30;92.78;100497.47;5072761;28;20107;-74
2021/03/20 01:56:27;;;;;;;80.38;46.03;;;;;;;2.13;91.56;100494.75;5073593;28;19913;-74
2021/03/20 01:59:31;;;;;;;75.78;44.63;;;;;;;1.39;92.98;100503.59;5073053;28;20115;-74
2021/03/20 02:02:03;;;;;;;52.47;31.33;;;;;;;0.95;93.19;100494.47;5072484;28;20029;-74
2021/03/20 02:04:29;;;;;;;49.15;29.10;;;;;;;0.93;94.49;100500.25;5054459;28;20032;-73
2021/03/20 02:06:55;;;;;;;50.15;28.02;;;;;;;1.04;93.31;100506.28;5072150;28;20085;-74
2021/03/20 02:09:24;;;;;;;50.65;27.77;;;;;;;0.97;93.64;100509.50;5054460;28;20549;-72
2021/03/20 02:12:25;;;;;;;43.50;25.98;;;;;;;0.84;92.93;100514.25;5072262;28;20017;-74
2021/03/20 02:15:18;;;;;;;43.95;25.95;;;;;;;1.56;93.02;100511.41;5072218;28;20056;-74
2021/03/20 02:18:05;;;;;;;42.17;25.67;;;;;;;1.33;91.91;100493.47;5071944;28;20032;-73
2021/03/20 02:21:08;;;;;;;49.78;27.48;;;;;;;1.51;91.73;100491.28;5071154;28;20587;-73
2021/03/20 02:24:04;;;;;;;52.53;28.50;;;;;;;1.54;91.33;100482.97;5071892;28;20030;-73
2021/03/20 02:27:19;;;;;;;54.25;29.05;;;;;;;1.24;91.91;100484.97;5051728;28;20041;-73
2021/03/20 02:33:28;;;;;;;56.55;32.05;;;;;;;0.91;92.90;100500.22;5051949;28;20033;-73
2021/03/20 02:36:40;;;;;;;54.80;29.48;;;;;;;1.19;91.91;100504.06;5033965;28;20028;-73
2021/03/20 02:39:08;;;;;;;57.92;27.13;;;;;;;1.16;92.82;100509.00;5015465;28;20416;-73
2021/03/20 02:42:11;;;;;;;53.58;30.23;;;;;;;1.09;91.96;100509.72;5051339;28;20028;-73
2021/03/20 02:44:51;;;;;;;47.05;27.27;;;;;;;0.89;92.87;100520.19;5051469;28;20461;-74
2021/03/20 02:47:25;;;;;;;50.67;24.90;;;;;;;0.79;93.27;100515.00;5033603;28;20024;-73
2021/03/20 02:50:34;;;;;;;57.65;25.20;;;;;;;0.68;93.99;100517.28;5052087;28;20025;-73
2021/03/20 02:53:15;;;;;;;60.67;25.77;;;;;;;0.80;95.55;100516.66;5051491;28;20110;-74
2021/03/20 02:55:50;;;;;;;62.50;27.98;;;;;;;0.74;93.83;100517.41;5051469;28;20090;-73
2021/03/20 02:58:44;;;;;;;61.72;28.30;;;;;;;0.61;94.23;100502.97;5051403;28;20043;-74
2021/03/20 03:01:22;;;;;;;61.40;27.95;;;;;;;0.72;95.58;100508.16;5051467;28;20517;-74
2021/03/20 03:03:57;;;;;;;64.25;30.40;;;;;;;0.83;94.09;100515.06;5051488;28;21137;-73
2021/03/20 03:06:58;;;;;;;69.28;32.17;;;;;;;0.86;95.09;100519.28;5033688;28;20091;-74
2021/03/20 03:10:10;;;;;;;47.33;21.92;;;;;;;0.73;95.11;100523.19;5051629;28;20082;-74
2021/03/20 03:12:58;;;;;;;64.13;30.58;;;;;;;0.59;94.86;100523.75;5051264;28;20033;-74
2021/03/20 03:15:36;;;;;;;69.38;32.67;;;;;;;1.12;94.40;100512.28;5033693;28;20111;-74
2021/03/20 03:18:32;;;;;;;77.57;35.55;;;;;;;0.94;93.13;100499.41;5051225;28;20563;-75
2021/03/20 03:21:05;;;;;;;84.97;37.95;;;;;;;0.84;94.24;100505.91;5046863;28;20134;-74
2021/03/20 03:23:34;;;;;;;79.32;36.03;;;;;;;1.20;94.09;100504.09;5051321;28;20025;-74
2021/03/20 03:26:38;;;;;;;71.45;34.30;;;;;;;1.24;93.25;100493.31;5033209;28;20119;-74
2021/03/20 03:29:25;;;;;;;85.30;33.30;;;;;;;0.91;95.40;100500.22;5033329;28;20045;-74
2021/03/20 03:32:05;;;;;;;78.72;34.38;;;;;;;0.98;95.47;100503.66;5053064;28;20434;-74
2021/03/20 03:35:09;;;;;;;90.10;32.03;;;;;;;0.80;95.77;100506.66;5037509;28;20021;-74
2021/03/20 03:38:01;;;;;;;107.93;30.50;;;;;;;0.61;96.65;100507.97;5037344;28;20502;-74
2021/03/20 03:40:47;;;;;;;;;;;;;;;0.70;97.25;100502.28;5055779;28;20107;-74
2021/03/20 03:43:52;;;;;;;87.55;26.00;;;;;;;0.40;99.35;100504.16;5037047;28;20286;-73
2021/03/20 03:46:42;;;;;;;86.65;25.27;;;;;;;0.31;99.12;100519.81;5055052;28;20517;-74
2021/03/20 03:49:22;;;;;;;80.60;23.27;;;;;;;0.14;99.07;100470.28;5055346;28;20037;-74
2021/03/20 03:51:59;;;;;;;104.90;24.45;;;;;;;0.22;97.73;100508.78;5055045;28;20041;-74
2021/03/20 03:54:44;;;;;;;69.05;22.83;;;;;;;0.35;99.53;100508.22;5054997;28;20382;-74
2021/03/20 03:57:50;;;;;;;58.17;26.60;;;;;;;0.93;98.61;100511.09;5037390;28;20405;-75
2021/03/20 04:00:38;;;;;;;62.80;25.27;;;;;;;0.55;97.59;100497.84;5037062;28;20029;-75
2021/03/20 04:03:24;;;;;;;69.43;27.45;;;;;;;0.32;97.93;100491.50;5036967;28;20037;-74
2021/03/20 04:06:19;;;;;;;52.30;26.25;;;;;;;0.44;98.19;100489.25;5036966;28;20040;-74
2021/03/20 04:09:28;;;;;;;67.03;28.50;;;;;;;0.38;98.23;100490.78;5054623;28;20086;-73
2021/03/20 04:15:21;;;;;;;44.88;22.35;;;;;;;1.08;96.51;100503.88;5054928;28;20051;-74
2021/03/20 04:17:57;;;;;;;69.43;31.10;;;;;;;0.55;96.84;100505.34;5054451;28;20090;-73
2021/03/20 04:20:33;;;;;;;68.05;32.83;;;;;;;0.93;97.41;100505.25;5054147;28;20044;-73
2021/03/20 04:23:21;;;;;;;62.47;32.95;;;;;;;0.66;96.59;100508.03;5054333;28;20025;-73
2021/03/20 04:26:41;;;;;;;64.13;33.78;;;;;;;1.30;95.65;100513.47;5072028;28;20048;-73
2021/03/20 04:29:50;;;;;;;58.38;32.78;;;;;;;1.33;94.04;100515.16;4973662;28;20154;-73
2021/03/20 04:32:51;;;;;;;57.50;30.70;;;;;;;0.86;94.67;100519.28;4960041;28;20041;-73
2021/03/20 04:35:39;;;;;;;73.03;33.92;;;;;;;0.41;97.77;100519.22;4957426;28;20134;-74
2021/03/20 04:38:16;;;;;;;66.78;33.97;;;;;;;0.81;96.68;100509.19;5070279;28;20047;-72
2021/03/20 04:41:10;;;;;;;74.28;35.13;;;;;;;0.43;96.63;100515.09;5075124;28;20032;-73
2021/03/20 04:43:52;;;;;;;61.75;29.45;;;;;;;0.58;97.63;100525.41;5073331;28;20120;-73
2021/03/20 04:46:34;;;;;;;95.55;41.28;;;;;;;0.72;96.25;100516.53;5073710;28;20501;-72
2021/03/20 04:49:41;;;;;;;88.93;38.55;;;;;;;0.77;95.87;100524.13;5055871;28;20455;-73
2021/03/20 04:52:22;;;;;;;67.88;31.77;;;;;;;1.55;98.03;100514.72;5055691;28;20032;-71
2021/03/20 04:54:53;;;;;;;73.65;32.85;;;;;;;1.42;95.17;100521.19;5055047;28;20654;-73
2021/03/20 04:57:34;;;;;;;76.55;33.40;;;;;;;1.35;94.18;100523.53;5073199;28;20090;-74
2021/03/20 05:00:37;;;;;;;80.40;33.80;;;;;;;1.32;94.20;100531.88;5056085;28;20024;-73
2021/03/20 05:03:19;;;;;;;80.95;34.38;;;;;;;0.89;94.91;100542.72;5056014;28;20106;-73
2021/03/20 05:06:08;;;;;;;69.47;28.88;;;;;;;0.36;95.95;100542.41;5055219;28;20181;-73
2021/03/20 05:08:58;;;;;;;70.65;26.67;;;;;;;0.15;96.78;100547.78;5055562;28;20497;-74
2021/03/20 05:11:39;;;;;;;98.65;30.23;;;;;;;0.36;95.59;100535.75;5073285;28;20054;-73
2021/03/20 05:14:30;;;;;;;101.90;33.42;;;;;;;0.66;96.11;100551.41;5073408;28;20490;-73
2021/03/20 05:17:01;;;;;;;53.60;26.38;;;;;;;0.38;95.58;100559.13;5073523;28;20044;-73
2021/03/20 05:19:36;;;;;;;58.78;25.00;;;;;;;0.42;95.40;100562.53;5055667;28;20037;-74
2021/03/20 05:22:38;;;;;;;48.40;27.05;;;;;;;0.44;96.70;100563.41;5072710;28;20082;-73
2021/03/20 05:25:24;;;;;;;60.20;31.67;;;;;;;0.32;97.13;100555.69;4972009;28;20050;-73
2021/03/20 05:28:10;;;;;;;64.68;31.65;;;;;;;0.84;94.99;100554.28;5065835;28;20120;-73
2021/03/20 05:30:47;;;;;;;75.15;35.85;;;;;;;0.48;95.75;100565.16;5072974;28;20037;-73
2021/03/20 05:33:20;;;;;;;76.68;36.13;;;;;;;0.63;94.43;100563.03;5073163;28;20554;-73
2021/03/20 05:35:53;;;;;;;79.47;38.55;;;;;;;0.76;94.76;100564.94;5072699;28;20025;-73
2021/03/20 05:38:18;;;;;;;76.93;38.63;;;;;;;0.86;94.18;100556.81;5072888;28;20028;-73
2021/03/20 05:41:21;;;;;;;76.72;35.50;;;;;;;0.76;94.69;100559.94;5055068;28;20485;-73
2021/03/20 05:47:19;;;;;;;41.65;22.95;;;;;;;0.97;94.76;100565.38;5073299;28;20039;-73
2021/03/20 05:53:45;;;;;;;100.47;44.42;;;;;;;1.23;95.37;100560.91;5072719;28;20050;-74
2021/03/20 05:56:34;;;;;;;118.13;58.08;;;;;;;1.48;94.84;100573.91;5054665;28;20214;-73
2021/03/20 06:02:46;;;;;;;118.88;58.28;;;;;;;1.27;95.22;100567.66;5077606;28;20096;-76
2021/03/20 06:05:42;;;;;;;162.85;74.22;;;;;;;1.16;95.49;100567.44;5055014;28;20583;-76
2021/03/20 06:08:32;;;;;;;195.73;81.35;;;;;;;0.91;96.46;100570.28;5054997;28;20119;-76
2021/03/20 06:11:43;;;;;;;136.45;60.97;;;;;;;1.37;94.29;100582.00;5055320;28;20032;-76
2021/03/20 06:14:48;;;;;;;115.25;51.10;;;;;;;1.18;94.42;100577.47;5054787;28;20146;-76
2021/03/20 06:21:09;;;;;;;88.85;46.75;;;;;;;1.36;93.75;100581.19;5072699;28;20101;-77
2021/03/20 06:24:18;;;;;;;89.53;45.10;;;;;;;1.67;92.16;100587.56;5054858;28;20047;-77
2021/03/20 06:27:14;;;;;;;89.60;45.72;;;;;;;1.54;93.52;100594.03;5034851;28;20124;-77
2021/03/20 06:30:23;;;;;;;96.18;48.50;;;;;;;1.35;94.04;100602.00;5035053;28;20048;-77
2021/03/20 06:33:28;;;;;;;95.70;48.03;;;;;;;1.75;92.04;100601.94;5052504;28;20033;-77
2021/03/20 06:36:28;;;;;;;109.88;52.70;;;;;;;2.18;91.80;100600.13;5034461;28;20032;-77
2021/03/20 06:39:28;;;;;;;144.60;65.45;;;;;;;1.93;91.59;100598.88;5052265;28;20521;-77
2021/03/20 06:42:34;;;;;;;143.85;66.35;;;;;;;1.76;93.59;100593.56;5052547;28;20060;-77
2021/03/20 06:45:48;;;;;;;121.57;59.17;;;;;;;2.00;91.86;100585.63;5053692;28;20033;-80
2021/03/20 06:48:21;;;;;;;127.15;58.10;;;;;;;2.16;92.29;100592.56;5035079;28;20482;-79
2021/03/20 06:50:51;;;;;;;111.85;52.80;;;;;;;2.09;93.06;100583.28;5035227;28;20037;-78
2021/03/20 06:54:06;;;;;;;110.10;57.13;;;;;;;2.58;91.20;100579.81;5034385;28;20051;-78
2021/03/20 06:56:36;;;;;;;77.85;41.72;;;;;;;2.31;91.74;100581.94;5052025;28;20059;-79
2021/03/20 06:59:17;;;;;;;80.60;42.63;;;;;;;2.47;92.18;100592.22;5052096;28;20151;-77
2021/03/20 07:02:22;;;;;;;60.97;30.00;;;;;;;1.98;93.19;100603.97;5034510;28;20029;-78
2021/03/20 07:05:01;;;;;;;90.35;41.45;;;;;;;1.61;95.75;100603.34;5034070;28;20029;-79
2021/03/20 07:10:59;;;;;;;118.05;50.95;;;;;;;2.02;94.66;100603.22;5052251;28;20037;-78
2021/03/20 07:16:56;;;;;;;129.30;54.57;;;;;;;1.86;95.86;100579.56;5051968;28;20136;-78
2021/03/20 07:19:34;;;;;;;100.60;41.03;;;;;;;2.04;95.15;100604.09;5034503;28;20368;-78
2021/03/20 07:22:00;;;;;;;79.32;39.08;;;;;;;2.47;93.48;100601.41;5053539;28;20040;-78
2021/03/20 07:24:36;;;;;;;84.22;39.67;;;;;;;2.66;91.64;100600.84;5053275;28;20402;-77
2021/03/20 07:27:40;;;;;;;78.05;39.05;;;;;;;2.73;91.49;100605.13;5053855;28;20036;-77
2021/03/20 07:30:27;;;;;;;72.72;35.20;;;;;;;3.26;90.64;100604.13;5053991;28;20033;-78
2021/03/20 07:32:52;;;;;;;69.22;32.22;;;;;;;3.33;90.55;100602.50;5053839;28;20092;-77
2021/03/20 07:35:42;;;;;;;70.22;33.40;;;;;;;4.36;88.42;100601.78;5053713;28;20052;-77
2021/03/20 07:38:20;;;;;;;70.25;34.63;;;;;;;4.35;88.43;100577.47;5070906;28;20060;-77
2021/03/20 07:41:15;;;;;;;64.53;34.53;;;;;;;4.41;86.81;100607.69;5071646;28;20032;-77
2021/03/20 07:44:00;;;;;;;137.30;48.60;;;;;;;5.20;84.33;100608.97;5070831;28;20094;-78
2021/03/20 07:46:58;;;;;;;68.57;35.97;;;;;;;5.04;84.29;100600.50;5053593;28;20404;-77
2021/03/20 07:49:36;;;;;;;67.35;34.67;;;;;;;5.47;83.89;100606.53;5054553;28;20036;-76
2021/03/20 07:52:04;;;;;;;66.05;37.05;;;;;;;5.29;85.67;100609.84;5032126;28;20037;-76
2021/03/20 07:54:42;;;;;;;72.32;39.58;;;;;;;4.39;88.84;100600.16;5052750;28;20066;-77
2021/03/20 07:57:20;;;;;;;70.07;38.40;;;;;;;4.40;89.12;100600.97;5053513;28;20098;-77
2021/03/20 08:00:03;;;;;;;69.20;36.33;;;;;;;4.29;88.54;100577.41;5065929;28;20031;-77
2021/03/20 08:02:42;;;;;;;65.45;36.13;;;;;;;5.18;87.40;100596.38;5053325;28;20056;-78
2021/03/20 08:05:25;;;;;;;70.65;36.25;;;;;;;5.42;86.07;100605.69;5052821;28;20516;-77
2021/03/20 08:08:23;;;;;;;68.95;35.95;;;;;;;6.50;85.84;100596.50;5053030;28;20504;-77
2021/03/20 08:11:32;;;;;;;66.40;35.15;;;;;;;6.29;83.79;100592.34;5053206;28;20039;-77
2021/03/20 08:14:36;;;;;;;56.58;31.75;;;;;;;6.84;83.54;100593.91;5052323;28;20047;-77
2021/03/20 08:17:02;;;;;;;50.83;30.33;;;;;;;6.43;82.18;100600.75;5053339;28;20032;-77
2021/03/20 08:19:32;;;;;;;51.17;30.95;;;;;;;6.81;83.23;100598.16;5091976;28;20446;-77
2021/03/20 08:22:32;;;;;;;44.22;27.38;;;;;;;6.89;81.11;100607.38;5093886;28;20054;-77
2021/03/20 08:25:25;;;;;;;47.92;28.95;;;;;;;6.85;81.72;100608.22;5076250;28;20052;-77
2021/03/20 08:28:10;;;;;;;44.45;29.65;;;;;;;7.64;79.17;100608.72;5073105;28;20046;-79
2021/03/20 08:31:06;;;;;;;42.50;27.02;;;;;;;7.41;79.31;100608.00;5072375;28;20039;-79
2021/03/20 08:34:02;;;;;;;42.55;27.80;;;;;;;6.86;81.05;100607.38;4721986;28;10000475;-78
2021/03/20 08:37:02;;;;;;;47.97;29.60;;;;;;;7.11;80.21;100602.25;5080583;28;20074;-79
2021/03/20 08:39:37;;;;;;;43.13;28.15;;;;;;;7.67;79.19;100597.72;5090241;28;20383;-78
2021/03/20 08:42:42;;;;;;;44.03;28.75;;;;;;;8.27;77.55;100599.84;5070732;28;20038;-79
2021/03/20 08:45:50;;;;;;;42.85;27.58;;;;;;;8.30;78.57;100593.94;5071423;28;20118;-79
2021/03/20 08:48:51;;;;;;;39.92;27.05;;;;;;;8.21;79.17;100583.81;5089080;28;20044;-78
2021/03/20 08:51:50;;;;;;;46.00;29.08;;;;;;;7.73;78.48;100585.03;5071703;28;20036;-80
2021/03/20 08:54:59;;;;;;;44.40;28.88;;;;;;;8.91;76.13;100578.94;5071659;28;20024;-82
2021/03/20 08:57:43;;;;;;;49.40;32.42;;;;;;;9.40;76.41;100585.06;5071747;28;20030;-83
2021/03/20 09:01:01;;;;;;;46.15;29.98;;;;;;;9.42;75.41;100578.28;5071742;28;20059;-82
2021/03/20 09:03:39;;;;;;;38.00;26.95;;;;;;;8.47;75.03;100557.44;5048071;28;20345;-81
2021/03/20 09:06:18;;;;;;;37.55;25.90;;;;;;;9.03;72.50;100573.72;5071238;28;20410;-81
2021/03/20 09:08:46;;;;;;;22.42;16.40;;;;;;;8.55;69.58;100549.75;5071881;28;20081;-84
2021/03/20 09:11:55;;;;;;;33.65;23.38;;;;;;;8.77;73.38;100577.38;5071930;28;20052;-83
2021/03/20 09:14:28;;;;;;;31.92;22.60;;;;;;;9.25;69.92;100567.50;5061202;28;20036;-82
2021/03/20 09:17:03;;;;;;;31.85;22.70;;;;;;;9.39;70.67;100561.38;5071790;28;20024;-82
2021/03/20 09:19:40;;;;;;;32.28;22.70;;;;;;;8.65;73.54;100562.31;5055464;28;20159;-84
2021/03/20 09:22:15;;;;;;;32.35;23.13;;;;;;;9.53;72.33;100563.72;5068659;28;20098;-80
2021/03/20 09:24:51;;;;;;;32.42;22.13;;;;;;;10.10;71.53;100557.75;5083302;28;20024;-80
2021/03/20 09:27:55;;;;;;;25.52;18.02;;;;;;;9.01;72.14;100567.81;5066803;28;20024;-81
2021/03/20 09:30:49;;;;;;;23.80;16.90;;;;;;;9.40;67.77;100550.38;5062671;28;20039;-79
2021/03/20 09:33:39;;;;;;;22.90;17.05;;;;;;;9.87;67.27;100551.34;5082851;28;20031;-79
2021/03/20 09:36:51;;;;;;;21.20;15.77;;;;;;;9.84;66.67;100569.19;5081488;28;20032;-80
2021/03/20 09:39:42;;;;;;;21.00;15.48;;;;;;;10.51;64.66;100544.34;5080015;28;20070;-82
2021/03/20 09:42:32;;;;;;;20.77;15.90;;;;;;;10.84;61.65;100570.81;5082861;28;20031;-78
2021/03/20 09:45:14;;;;;;;24.02;17.13;;;;;;;10.98;65.43;100568.84;5097261;28;20036;-79
2021/03/20 09:47:52;;;;;;;19.15;15.00;;;;;;;11.23;63.34;100570.03;5074762;28;20538;-77
2021/03/20 09:50:21;;;;;;;18.75;15.13;;;;;;;10.84;63.75;100564.03;5084791;28;20032;-80
2021/03/20 09:53:10;;;;;;;19.15;14.82;;;;;;;11.19;61.27;100559.06;5093166;28;20024;-83
2021/03/20 09:55:52;;;;;;;17.00;13.00;;;;;;;10.81;61.85;100553.09;5090151;28;20044;-78
2021/03/20 09:58:32;;;;;;;;;;;;;;;10.74;62.73;100549.81;5090277;28;20089;-79
2021/03/20 10:00:58;;;;;;;18.40;14.52;;;;;;;11.24;60.26;100538.59;5089882;28;19919;-80
2021/03/20 10:03:41;;;;;;;15.93;12.48;;;;;;;10.93;60.13;100546.06;5071611;28;20114;-81
2021/03/20 10:06:34;;;;;;;15.30;13.10;;;;;;;11.98;57.29;100537.72;5071893;28;20110;-81
2021/03/20 10:09:07;;;;;;;17.20;13.70;;;;;;;11.31;60.47;100538.44;5071649;28;20832;-75
2021/03/20 10:12:01;;;;;;;16.95;14.05;;;;;;;10.90;61.13;100535.94;5088247;28;20135;-75
2021/03/20 10:14:33;;;;;;;11.82;10.18;;;;;;;10.54;60.32;100525.66;5070675;28;20024;-75
2021/03/20 10:17:14;;;;;;;13.73;11.27;;;;;;;11.33;58.35;100531.59;5070088;28;20409;-75
2021/03/20 10:20:04;;;;;;;23.23;15.03;;;;;;;10.66;59.11;100507.59;5070747;28;20051;-75
2021/03/20 10:22:34;;;;;;;14.48;11.35;;;;;;;11.38;57.81;100513.69;5071109;28;20827;-75
2021/03/20 10:25:01;;;;;;;16.38;12.95;;;;;;;11.37;57.96;100498.47;5088698;28;20078;-75
2021/03/20 10:27:39;;;;;;;12.40;10.13;;;;;;;11.06;57.34;100511.00;5088966;28;20027;-76
2021/03/20 10:30:24;;;;;;;13.18;11.13;;;;;;;11.85;56.65;100498.16;5070708;28;20052;-75
2021/03/20 10:33:30;;;;;;;13.13;10.88;;;;;;;12.22;56.19;100504.88;5069477;28;20031;-74
2021/03/20 10:36:29;;;;;;;17.92;14.43;;;;;;;11.18;60.82;100511.59;5030575;28;20506;-76
2021/03/20 10:38:55;;;;;;;20.08;15.43;;;;;;;11.68;57.88;100492.66;5029730;28;20033;-75
2021/03/20 10:41:31;;;;;;;19.52;13.70;;;;;;;11.18;57.80;100511.59;5047437;28;20395;-76
2021/03/20 10:44:20;;;;;;;12.60;10.73;;;;;;;12.09;56.02;100501.78;5030516;28;20036;-76
2021/03/20 10:46:47;;;;;;;14.63;11.45;;;;;;;11.06;58.05;100491.50;5030695;28;20029;-74
2021/03/20 10:49:23;;;;;;;14.50;12.15;;;;;;;12.07;55.75;100478.06;5047222;28;20044;-75
2021/03/20 10:51:53;;;;;;;17.77;14.50;;;;;;;12.73;56.05;100509.41;5029196;28;20068;-75
2021/03/20 10:54:28;;;;;;;14.70;11.90;;;;;;;11.39;58.62;100505.16;5047191;28;20108;-74
2021/03/20 10:57:00;;;;;;;15.73;12.77;;;;;;;11.39;56.98;100507.72;5048178;28;20039;-75
2021/03/20 10:59:25;;;;;;;11.68;10.18;;;;;;;10.80;59.14;100503.09;5029449;28;20036;-76
2021/03/20 11:01:54;;;;;;;12.00;10.57;;;;;;;10.96;58.44;100500.19;5047375;28;20426;-75
2021/03/20 11:04:32;;;;;;;10.40;8.98;;;;;;;11.15;57.54;100493.03;5047166;28;20025;-76
2021/03/20 11:07:01;;;;;;;15.05;11.63;;;;;;;10.83;61.02;100492.88;5029987;28;20467;-75
2021/03/20 11:09:29;;;;;;;13.02;10.55;;;;;;;11.06;59.31;100493.19;5047437;28;20502;-75
2021/03/20 11:12:06;;;;;;;22.92;15.40;;;;;;;11.83;57.12;100483.78;5047827;28;20028;-74
2021/03/20 11:15:00;;;;;;;10.77;9.18;;;;;;;11.81;56.49;100473.63;5048186;28;20029;-75
2021/03/20 11:17:30;;;;;;;12.73;9.98;;;;;;;11.74;57.15;100469.56;5030184;28;20094;-75
2021/03/20 11:20:16;;;;;;;12.60;10.70;;;;;;;11.87;58.11;100477.72;5047575;28;20033;-76
2021/03/20 11:22:43;;;;;;;11.70;9.02;;;;;;;11.08;55.87;100478.75;5044619;28;20041;-74
2021/03/20 11:25:26;;;;;;;8.00;7.20;;;;;;;11.17;57.11;100468.38;5028674;28;20044;-75
2021/03/20 11:28:01;;;;;;;9.48;7.95;;;;;;;10.91;57.54;100470.66;5047079;28;20110;-74
2021/03/20 11:30:39;;;;;;;39.97;18.65;;;;;;;11.47;57.85;100457.47;5047728;28;20517;-75
2021/03/20 11:33:05;;;;;;;15.30;10.45;;;;;;;11.29;55.97;100450.25;5048519;28;20025;-76
2021/03/20 11:35:41;;;;;;;18.20;11.95;;;;;;;10.96;56.43;100448.47;5088394;28;20043;-75
2021/03/20 11:38:13;;;;;;;12.35;9.25;;;;;;;10.87;57.67;100448.69;5088253;28;20500;-74
2021/03/20 11:40:41;;;;;;;;;;;;;;;11.07;57.62;100429.56;5088041;28;20416;-75
2021/03/20 11:43:26;;;;;;;8.90;7.68;;;;;;;10.63;56.63;100441.56;5087954;28;19916;-75
2021/03/20 11:46:06;;;;;;;11.82;9.35;;;;;;;10.54;57.71;100434.97;5069493;28;20036;-75
2021/03/20 11:48:38;;;;;;;30.00;18.80;;;;;;;10.46;57.59;100441.91;5087833;28;20457;-75
2021/03/20 11:51:06;;;;;;;;;;;;;;;10.69;58.54;100441.44;5069513;28;20135;-75
2021/03/20 11:53:54;;;;;;;16.45;11.45;;;;;;;10.21;57.36;100435.63;5089543;28;19919;-75
2021/03/20 11:56:20;;;;;;;25.48;17.90;;;;;;;10.55;57.26;100434.13;5091179;28;20020;-74
2021/03/20 11:58:59;;;;;;;19.38;13.38;;;;;;;10.28;58.80;100435.47;5073141;28;20031;-73
2021/03/20 12:01:35;;;;;;;10.65;8.38;;;;;;;9.94;59.92;100431.03;5091220;28;20077;-75
2021/03/20 12:04:09;;;;;;;8.95;7.68;;;;;;;10.10;57.94;100420.59;5073112;28;20076;-73
2021/03/20 12:06:36;;;;;;;10.07;8.05;;;;;;;9.97;58.05;100411.50;5092016;28;20031;-74
2021/03/20 12:09:27;;;;;;;12.02;9.15;;;;;;;10.48;58.71;100419.03;5074027;28;20024;-73
2021/03/20 12:11:56;;;;;;;19.60;13.60;;;;;;;10.74;58.10;100411.66;5091514;28;20028;-72
2021/03/20 12:14:35;;;;;;;18.50;11.98;;;;;;;10.30;59.52;100410.06;5072834;28;20032;-75
2021/03/20 12:17:09;;;;;;;12.55;10.55;;;;;;;10.54;59.12;100396.84;5090515;28;20028;-73
2021/03/20 12:20:07;;;;;;;15.48;12.27;;;;;;;10.45;59.29;100402.97;5062310;28;20036;-74
2021/03/20 12:22:47;;;;;;;12.55;9.85;;;;;;;10.21;59.31;100405.16;5033616;28;20029;-75
2021/03/20 12:25:19;;;;;;;12.38;10.10;;;;;;;10.20;59.29;100406.84;5033007;28;20922;-75
2021/03/20 12:27:48;;;;;;;12.90;10.25;;;;;;;10.03;60.15;100408.84;5032827;28;20067;-75
2021/03/20 12:30:26;;;;;;;14.45;11.13;;;;;;;10.25;61.02;100402.53;5050782;28;20048;-74
2021/03/20 12:33:13;;;;;;;12.70;10.30;;;;;;;10.21;59.56;100375.50;5032858;28;20597;-73
2021/03/20 12:35:43;;;;;;;14.13;11.57;;;;;;;10.29;59.94;100388.91;5032690;28;20151;-75
2021/03/20 12:38:24;;;;;;;13.95;10.98;;;;;;;10.29;60.61;100375.34;5050035;28;20429;-75
2021/03/20 12:41:02;;;;;;;14.75;11.82;;;;;;;10.57;60.05;100383.22;5048834;28;20025;-74
2021/03/20 12:43:29;;;;;;;13.13;10.40;;;;;;;10.24;60.89;100385.59;5050556;28;20061;-73
2021/03/20 12:46:00;;;;;;;11.40;9.95;;;;;;;10.10;60.08;100381.66;5031488;28;20476;-74
2021/03/20 12:48:26;;;;;;;12.50;10.00;;;;;;;10.08;60.22;100379.09;5032506;28;20060;-74
2021/03/20 12:51:06;;;;;;;13.05;11.65;;;;;;;10.58;61.16;100384.91;5032234;28;20051;-75
2021/03/20 12:53:32;;;;;;;14.23;11.60;;;;;;;10.35;58.61;100382.84;5050544;28;20541;-74
2021/03/20 12:55:58;;;;;;;12.50;10.90;;;;;;;10.25;59.84;100381.34;5032814;28;20040;-74
2021/03/20 12:58:26;;;;;;;11.25;9.50;;;;;;;10.65;58.46;100366.09;5064571;28;20024;-75
2021/03/20 13:00:54;;;;;;;12.77;10.63;;;;;;;10.57;58.76;100366.28;5070315;28;20132;-74